Time;durP1;ratioP1;P1;durP2;ratioP2;P2;SDS_P1;SDS_P2;PMS_P1;PMS_P2;Temp;Humidity;BMP_temperature;BMP_pressure;BME280_temperature;BME280_humidity;BME280_pressure;Samples;Min_cycle;Max_cycle;Signal;HPM_P1;HPM_P2
2022/08/24 06:05:53;;;;;;;9.30;8.40;;;;;;;21.55;100.00;100307.28;6657405;26;305653;-88
2022/08/24 06:09:00;;;;;;;9.50;7.75;;;;;;;21.66;100.00;100308.91;6658092;26;33840;-89
2022/08/24 06:12:06;;;;;;;9.95;7.53;;;;;;;22.20;96.93;100303.62;6647820;26;34446;-88
2022/08/24 06:15:10;;;;;;;9.25;7.40;;;;;;;22.49;94.72;100305.19;6640502;26;32734;-89
2022/08/24 06:18:12;;;;;;;9.73;6.97;;;;;;;22.83;92.36;100292.81;6662794;26;34801;-89
2022/08/24 07:07:15;;;;;;;9.40;5.50;;;;;;;24.92;79.85;100329.47;6633278;26;20306;-89
2022/08/24 07:45:03;;;;;;;7.75;5.20;;;;;;;25.44;80.29;100372.44;6627252;26;35421;-89
2022/08/24 07:59:16;;;;;;;7.60;4.95;;;;;;;26.39;72.87;100382.53;6637365;26;20079;-89
2022/08/24 08:09:48;;;;;;;9.27;5.40;;;;;;;26.53;71.87;100383.63;6655541;26;20063;-88
2022/08/24 08:12:51;;;;;;;6.12;5.03;;;;;;;26.87;70.13;100386.94;6661329;26;34332;-87
2022/08/24 08:15:55;;;;;;;6.32;5.45;;;;;;;26.95;69.73;100383.34;6656458;26;34536;-87
2022/08/24 08:19:02;;;;;;;9.68;5.57;;;;;;;26.87;68.68;100382.34;6662860;26;33939;-87
2022/08/24 08:25:40;;;;;;;6.87;5.18;;;;;;;27.50;68.73;100381.22;6665063;26;32799;-87
2022/08/24 08:28:50;;;;;;;9.00;5.60;;;;;;;28.10;66.80;100377.56;6662238;26;33920;-88
2022/08/24 08:31:53;;;;;;;9.90;5.30;;;;;;;28.74;65.87;100377.81;6662423;26;34096;-88
2022/08/24 08:34:57;;;;;;;6.25;5.25;;;;;;;28.83;61.12;100381.25;6661964;26;33970;-88
2022/08/24 08:38:05;;;;;;;10.88;5.35;;;;;;;28.42;62.67;100385.50;6643659;26;32924;-88
2022/08/24 08:41:16;;;;;;;8.18;4.93;;;;;;;28.65;63.17;100385.28;6661697;26;33905;-88
2022/08/24 08:44:36;;;;;;;7.93;4.82;;;;;;;28.65;61.54;100383.41;6659068;26;34744;-88
2022/08/24 08:47:56;;;;;;;8.65;4.75;;;;;;;28.90;61.12;100387.62;6607155;27;34694;-88
2022/08/24 08:51:12;;;;;;;7.82;5.03;;;;;;;28.78;59.97;100396.34;6605072;27;32874;-87
2022/08/24 08:54:34;;;;;;;7.70;4.72;;;;;;;29.17;59.04;100385.94;6604426;27;32708;-87
2022/08/24 08:57:55;;;;;;;9.43;4.87;;;;;;;30.04;57.89;100392.94;6605308;27;34311;-87
2022/08/24 09:01:29;;;;;;;10.88;5.50;;;;;;;30.25;55.51;100380.19;6604723;27;33785;-87
2022/08/24 09:05:04;;;;;;;8.38;4.85;;;;;;;30.48;53.57;100381.72;6600785;27;33830;-87
2022/08/24 09:08:21;;;;;;;11.52;5.20;;;;;;;30.04;57.27;100384.75;6606992;27;34320;-88
2022/08/24 09:11:47;;;;;;;6.53;4.70;;;;;;;29.78;55.43;100380.00;6605542;27;34614;-87
2022/08/24 09:15:08;;;;;;;13.02;4.87;;;;;;;30.21;55.05;100382.50;6605832;27;34531;-88
2022/08/24 09:18:32;;;;;;;10.20;4.70;;;;;;;30.36;53.59;100381.47;6606476;27;32440;-88
2022/08/24 09:21:51;;;;;;;7.53;4.68;;;;;;;29.97;53.34;100387.44;6614225;26;32361;-87
2022/08/24 09:25:06;;;;;;;7.07;4.93;;;;;;;29.86;54.64;100379.81;6657548;26;34649;-88
2022/08/24 09:28:31;;;;;;;10.15;6.32;;;;;;;29.51;56.81;100377.16;6643668;26;33257;-88
2022/08/24 09:31:45;;;;;;;10.77;4.60;;;;;;;30.06;57.41;100374.44;6664132;26;34652;-88
2022/08/24 09:34:58;;;;;;;6.93;4.62;;;;;;;30.26;54.67;100370.94;6663729;26;33781;-86
2022/08/24 09:38:23;;;;;;;10.60;5.05;;;;;;;29.95;52.91;100375.03;6660867;26;33651;-87
2022/08/24 09:42:02;;;;;;;11.05;4.90;;;;;;;29.21;57.03;100366.44;6661433;26;34091;-87
2022/08/24 09:45:50;;;;;;;13.30;5.05;;;;;;;29.83;53.14;100370.13;6660510;26;34493;-87
2022/08/24 09:49:13;;;;;;;9.32;4.78;;;;;;;30.26;53.25;100362.72;6615768;26;34043;-89
2022/08/24 09:52:27;;;;;;;7.35;4.85;;;;;;;30.25;51.12;100366.50;6643875;26;33589;-90
2022/08/24 12:08:53;;;;;;;16.02;7.60;;;;;;;27.23;76.35;100394.44;6662067;26;20063;-87
2022/08/24 12:12:15;;;;;;;9.73;7.72;;;;;;;26.93;77.18;100394.41;6662715;26;34708;-91
2022/08/24 12:37:37;;;;;;;12.77;6.60;;;;;;;25.44;84.70;100407.72;6557663;27;20037;-87
2022/08/24 12:40:54;;;;;;;10.43;6.95;;;;;;;25.80;81.38;100406.44;6546115;27;34219;-87
2022/08/24 13:18:14;;;;;;;13.23;5.97;;;;;;;26.17;78.08;100373.31;6662644;26;20399;-88
2022/08/24 13:21:46;;;;;;;7.97;5.57;;;;;;;26.36;76.76;100375.59;6643226;26;33108;-89
2022/08/24 13:24:59;;;;;;;7.10;5.22;;;;;;;26.06;78.53;100374.56;6660091;26;33685;-89
2022/08/24 13:28:08;;;;;;;7.37;5.18;;;;;;;25.79;80.90;100372.16;6642686;26;33474;-89
2022/08/24 13:31:20;;;;;;;11.12;5.45;;;;;;;25.70;83.35;100378.66;6642247;26;32590;-89
2022/08/24 13:34:35;;;;;;;6.18;5.43;;;;;;;25.64;85.22;100379.37;6642942;26;33648;-90
2022/08/24 13:37:39;;;;;;;6.05;4.97;;;;;;;25.75;84.81;100383.56;6642513;26;33199;-90
2022/08/24 13:40:54;;;;;;;7.50;5.32;;;;;;;25.79;81.09;100384.91;6642409;26;33316;-90
2022/08/24 13:44:10;;;;;;;8.77;5.68;;;;;;;25.55;82.70;100389.41;6662657;26;33724;-90
